N601JG LZIB-UKKK
Flight info
| Callsign | N601JG |
|---|---|
| Flight time | 1h 17m |
| Altitude | 39000 |
| Route | NIT DCT TAKOS DCT MALBE/K0859F390 P27 PIGUM/K0817F270 P27 LAPVA |
| Aircraft | CL60/M-SBDE1E2E3FGHIJ1J4J5J7M3RWXYZ/LB1V1D1 |
Departure
| Time | 2026-05-04 19:50 |
|---|---|
| Airport | M. R. Štefánik Airport (LZIB) |
Arrival
| Time | 2026-05-04 21:07 |
|---|---|
| Airport | Ihor Sikorsky Kyiv International Airport (Zhuliany) (UKKK) |
| Time | Latitude | Longitude | Altitude | Speed | Heading |
|---|---|---|---|---|---|
| 2026-05-04 19:15 | 48.16507 | 17.19647 | 434 ft | 0 kts | 235° |
| 2026-05-04 19:45 | 48.16482 | 17.19634 | 435 ft | 11 kts | 159° |
| 2026-05-04 19:45 | 48.16422 | 17.19756 | 434 ft | 16 kts | 123° |
| 2026-05-04 19:45 | 48.16363 | 17.19900 | 433 ft | 15 kts | 102° |
| 2026-05-04 19:46 | 48.16431 | 17.20021 | 431 ft | 17 kts | 40° |
| 2026-05-04 19:46 | 48.16531 | 17.20148 | 431 ft | 21 kts | 41° |
| 2026-05-04 19:46 | 48.16656 | 17.20308 | 431 ft | 24 kts | 40° |
| 2026-05-04 19:46 | 48.16779 | 17.20474 | 431 ft | 23 kts | 44° |
| 2026-05-04 19:47 | 48.16896 | 17.20653 | 431 ft | 23 kts | 46° |
| 2026-05-04 19:47 | 48.16996 | 17.20810 | 428 ft | 15 kts | 44° |
| 2026-05-04 19:47 | 48.17064 | 17.20814 | 428 ft | 15 kts | 314° |
| 2026-05-04 19:47 | 48.17149 | 17.20681 | 430 ft | 20 kts | 314° |
| 2026-05-04 19:48 | 48.17255 | 17.20520 | 432 ft | 22 kts | 315° |
| 2026-05-04 19:48 | 48.17334 | 17.20393 | 434 ft | 14 kts | 314° |
| 2026-05-04 19:48 | 48.17393 | 17.20318 | 434 ft | 9 kts | 334° |
| 2026-05-04 19:48 | 48.17458 | 17.20302 | 434 ft | 10 kts | 11° |
| 2026-05-04 19:49 | 48.17521 | 17.20362 | 433 ft | 12 kts | 54° |
| 2026-05-04 19:49 | 48.17549 | 17.20415 | 431 ft | 4 kts | 72° |
| 2026-05-04 19:49 | 48.17503 | 17.20500 | 431 ft | 36 kts | 134° |
| 2026-05-04 19:49 | 48.17067 | 17.21176 | 428 ft | 139 kts | 133° |
| 2026-05-04 19:50 | 48.16303 | 17.22360 | 1064 ft | 172 kts | 135° |
| 2026-05-04 19:50 | 48.15470 | 17.23681 | 2127 ft | 185 kts | 138° |
| 2026-05-04 19:50 | 48.14549 | 17.25114 | 3105 ft | 206 kts | 140° |
| 2026-05-04 19:50 | 48.13489 | 17.26728 | 4045 ft | 235 kts | 139° |
| 2026-05-04 19:51 | 48.12536 | 17.28758 | 5325 ft | 254 kts | 118° |
| 2026-05-04 19:51 | 48.12135 | 17.31398 | 6501 ft | 277 kts | 92° |
| 2026-05-04 19:51 | 48.12586 | 17.34229 | 7805 ft | 290 kts | 71° |
| 2026-05-04 19:51 | 48.13322 | 17.36997 | 9136 ft | 296 kts | 70° |
| 2026-05-04 19:52 | 48.14078 | 17.39876 | 10459 ft | 303 kts | 71° |
| 2026-05-04 19:52 | 48.14881 | 17.42959 | 11032 ft | 337 kts | 70° |
| 2026-05-04 19:52 | 48.15758 | 17.46334 | 11750 ft | 360 kts | 70° |
| 2026-05-04 19:52 | 48.16677 | 17.49869 | 12774 ft | 372 kts | 70° |
| 2026-05-04 19:53 | 48.17626 | 17.53541 | 13543 ft | 384 kts | 71° |
| 2026-05-04 19:53 | 48.18513 | 17.57346 | 14171 ft | 396 kts | 72° |
| 2026-05-04 19:53 | 48.19388 | 17.61252 | 15446 ft | 395 kts | 72° |
| 2026-05-04 19:53 | 48.20247 | 17.65082 | 16728 ft | 393 kts | 73° |
| 2026-05-04 19:54 | 48.21119 | 17.68978 | 17828 ft | 396 kts | 72° |
| 2026-05-04 19:54 | 48.21987 | 17.72873 | 18781 ft | 401 kts | 72° |
| 2026-05-04 19:54 | 48.22880 | 17.76888 | 19696 ft | 406 kts | 72° |
| 2026-05-04 19:54 | 48.23768 | 17.80888 | 20573 ft | 410 kts | 72° |
| 2026-05-04 19:55 | 48.24672 | 17.84970 | 21428 ft | 415 kts | 71° |
| 2026-05-04 19:55 | 48.25575 | 17.89056 | 22249 ft | 418 kts | 71° |
| 2026-05-04 19:55 | 48.26481 | 17.93166 | 23033 ft | 422 kts | 71° |
| 2026-05-04 19:55 | 48.27405 | 17.97366 | 23816 ft | 425 kts | 71° |
| 2026-05-04 19:56 | 48.28331 | 18.01587 | 24552 ft | 429 kts | 71° |
| 2026-05-04 19:56 | 48.29195 | 18.05884 | 25240 ft | 434 kts | 75° |
| 2026-05-04 19:56 | 48.29845 | 18.10351 | 25889 ft | 439 kts | 77° |
| 2026-05-04 19:56 | 48.30476 | 18.14817 | 26504 ft | 443 kts | 77° |
| 2026-05-04 19:57 | 48.31124 | 18.19398 | 27079 ft | 447 kts | 77° |
| 2026-05-04 19:57 | 48.31764 | 18.23945 | 27631 ft | 451 kts | 76° |
| 2026-05-04 19:57 | 48.32411 | 18.28557 | 28156 ft | 455 kts | 76° |
| 2026-05-04 19:57 | 48.33067 | 18.33239 | 28656 ft | 458 kts | 76° |
| 2026-05-04 19:58 | 48.33719 | 18.37918 | 29138 ft | 462 kts | 76° |
| 2026-05-04 19:58 | 48.34384 | 18.42706 | 29601 ft | 465 kts | 76° |
| 2026-05-04 19:58 | 48.35037 | 18.47420 | 30012 ft | 468 kts | 76° |
| 2026-05-04 19:58 | 48.35705 | 18.52255 | 30430 ft | 470 kts | 76° |
| 2026-05-04 19:59 | 48.36375 | 18.57126 | 30825 ft | 472 kts | 76° |
| 2026-05-04 19:59 | 48.37035 | 18.61942 | 31288 ft | 472 kts | 76° |
| 2026-05-04 19:59 | 48.37690 | 18.66733 | 31812 ft | 470 kts | 77° |
| 2026-05-04 19:59 | 48.38340 | 18.71515 | 32330 ft | 468 kts | 77° |
| 2026-05-04 20:00 | 48.38990 | 18.76306 | 32827 ft | 466 kts | 76° |
| 2026-05-04 20:00 | 48.39639 | 18.81101 | 33305 ft | 465 kts | 76° |
| 2026-05-04 20:00 | 48.40279 | 18.85846 | 33746 ft | 464 kts | 76° |
| 2026-05-04 20:00 | 48.40919 | 18.90613 | 34195 ft | 462 kts | 76° |
| 2026-05-04 20:01 | 48.41557 | 18.95377 | 34632 ft | 461 kts | 76° |
| 2026-05-04 20:01 | 48.42184 | 19.00070 | 35020 ft | 460 kts | 76° |
| 2026-05-04 20:01 | 48.42810 | 19.04777 | 35359 ft | 459 kts | 76° |
| 2026-05-04 20:01 | 48.43431 | 19.09460 | 35662 ft | 459 kts | 76° |
| 2026-05-04 20:02 | 48.44056 | 19.14187 | 35949 ft | 459 kts | 76° |
| 2026-05-04 20:02 | 48.44675 | 19.18883 | 36212 ft | 459 kts | 77° |
| 2026-05-04 20:02 | 48.45293 | 19.23598 | 36485 ft | 459 kts | 77° |
| 2026-05-04 20:02 | 48.45916 | 19.28351 | 36755 ft | 459 kts | 77° |
| 2026-05-04 20:03 | 48.46529 | 19.33056 | 37085 ft | 459 kts | 77° |
| 2026-05-04 20:03 | 48.47144 | 19.37785 | 37435 ft | 458 kts | 77° |
| 2026-05-04 20:03 | 48.47752 | 19.42478 | 37759 ft | 457 kts | 77° |
| 2026-05-04 20:03 | 48.48359 | 19.47182 | 38059 ft | 457 kts | 77° |
| 2026-05-04 20:04 | 48.48959 | 19.51844 | 38332 ft | 457 kts | 77° |
| 2026-05-04 20:04 | 48.49565 | 19.56575 | 38602 ft | 456 kts | 77° |
| 2026-05-04 20:04 | 48.50162 | 19.61244 | 38853 ft | 456 kts | 77° |
| 2026-05-04 20:04 | 48.50763 | 19.65964 | 39067 ft | 457 kts | 78° |
| 2026-05-04 20:05 | 48.51361 | 19.70675 | 39072 ft | 461 kts | 78° |
| 2026-05-04 20:05 | 48.52571 | 19.80262 | 39073 ft | 468 kts | 78° |
| 2026-05-04 20:06 | 48.53787 | 19.89958 | 39077 ft | 474 kts | 78° |
| 2026-05-04 20:06 | 48.54997 | 19.99678 | 39076 ft | 475 kts | 78° |
| 2026-05-04 20:07 | 48.56203 | 20.09448 | 39075 ft | 474 kts | 78° |
| 2026-05-04 20:07 | 48.57400 | 20.19212 | 39074 ft | 474 kts | 78° |
| 2026-05-04 20:08 | 48.58599 | 20.29027 | 39072 ft | 474 kts | 77° |
| 2026-05-04 20:08 | 48.59810 | 20.38821 | 39073 ft | 474 kts | 77° |
| 2026-05-04 20:09 | 48.61009 | 20.48591 | 39067 ft | 473 kts | 77° |
| 2026-05-04 20:09 | 48.62200 | 20.58370 | 39066 ft | 473 kts | 77° |
| 2026-05-04 20:10 | 48.63376 | 20.68102 | 39068 ft | 473 kts | 78° |
| 2026-05-04 20:10 | 48.64547 | 20.77858 | 39071 ft | 473 kts | 78° |
| 2026-05-04 20:11 | 48.65711 | 20.87638 | 39065 ft | 473 kts | 78° |
| 2026-05-04 20:11 | 48.66872 | 20.97465 | 39061 ft | 473 kts | 78° |
| 2026-05-04 20:12 | 48.68021 | 21.07260 | 39053 ft | 473 kts | 78° |
| 2026-05-04 20:12 | 48.69157 | 21.17013 | 39050 ft | 473 kts | 78° |
| 2026-05-04 20:13 | 48.70286 | 21.26791 | 39049 ft | 472 kts | 78° |
| 2026-05-04 20:13 | 48.71412 | 21.36614 | 39054 ft | 472 kts | 78° |
| 2026-05-04 20:14 | 48.72528 | 21.46425 | 39055 ft | 472 kts | 78° |
| 2026-05-04 20:14 | 48.73632 | 21.56207 | 39050 ft | 472 kts | 78° |
| 2026-05-04 20:15 | 48.74728 | 21.65998 | 39054 ft | 472 kts | 79° |
| 2026-05-04 20:15 | 48.75818 | 21.75817 | 39052 ft | 471 kts | 78° |
| 2026-05-04 20:16 | 48.76902 | 21.85666 | 39053 ft | 471 kts | 78° |
| 2026-05-04 20:16 | 48.77969 | 21.95432 | 39053 ft | 470 kts | 78° |
| 2026-05-04 20:17 | 48.79029 | 22.05220 | 39050 ft | 470 kts | 78° |
| 2026-05-04 20:17 | 48.80083 | 22.15033 | 39059 ft | 470 kts | 78° |
| 2026-05-04 20:18 | 48.81126 | 22.24820 | 39062 ft | 470 kts | 78° |
| 2026-05-04 20:18 | 48.82222 | 22.34595 | 39065 ft | 469 kts | 75° |
| 2026-05-04 20:19 | 48.84422 | 22.43823 | 39077 ft | 464 kts | 62° |
| 2026-05-04 20:19 | 48.87248 | 22.52644 | 39078 ft | 464 kts | 62° |
| 2026-05-04 20:20 | 48.90063 | 22.61485 | 39082 ft | 463 kts | 62° |
| 2026-05-04 20:20 | 48.92864 | 22.70320 | 39086 ft | 463 kts | 63° |
| 2026-05-04 20:21 | 48.95649 | 22.79141 | 39084 ft | 463 kts | 62° |
| 2026-05-04 20:21 | 48.99818 | 22.92418 | 39100 ft | 464 kts | 62° |
| 2026-05-04 20:22 | 49.02591 | 23.01293 | 39101 ft | 464 kts | 63° |
| 2026-05-04 20:22 | 49.05375 | 23.10240 | 39098 ft | 464 kts | 63° |
| 2026-05-04 20:23 | 49.08134 | 23.19138 | 39108 ft | 463 kts | 63° |
| 2026-05-04 20:23 | 49.10886 | 23.28050 | 39104 ft | 462 kts | 63° |
| 2026-05-04 20:24 | 49.13616 | 23.36921 | 39103 ft | 462 kts | 63° |
| 2026-05-04 20:24 | 49.16360 | 23.45873 | 39086 ft | 462 kts | 63° |
| 2026-05-04 20:25 | 49.19072 | 23.54750 | 39075 ft | 463 kts | 63° |
| 2026-05-04 20:25 | 49.21807 | 23.63733 | 39075 ft | 463 kts | 63° |
| 2026-05-04 20:26 | 49.24518 | 23.72672 | 39057 ft | 463 kts | 64° |
| 2026-05-04 20:26 | 49.27210 | 23.81580 | 39058 ft | 462 kts | 64° |
| 2026-05-04 20:27 | 49.29925 | 23.90599 | 39051 ft | 462 kts | 64° |
| 2026-05-04 20:27 | 49.32599 | 23.99517 | 39049 ft | 463 kts | 64° |
| 2026-05-04 20:28 | 49.35284 | 24.08501 | 39047 ft | 463 kts | 63° |
| 2026-05-04 20:28 | 49.37966 | 24.17498 | 39040 ft | 463 kts | 64° |
| 2026-05-04 20:29 | 49.40633 | 24.26479 | 39040 ft | 462 kts | 64° |
| 2026-05-04 20:29 | 49.43285 | 24.35452 | 39040 ft | 462 kts | 64° |
| 2026-05-04 20:30 | 49.45935 | 24.44450 | 39037 ft | 462 kts | 64° |
| 2026-05-04 20:30 | 49.48574 | 24.53448 | 39035 ft | 462 kts | 64° |
| 2026-05-04 20:31 | 49.51226 | 24.62500 | 39040 ft | 462 kts | 63° |
| 2026-05-04 20:31 | 49.53860 | 24.71500 | 39032 ft | 463 kts | 64° |
| 2026-05-04 20:32 | 49.56496 | 24.80551 | 39031 ft | 463 kts | 64° |
| 2026-05-04 20:32 | 49.59122 | 24.89652 | 39040 ft | 463 kts | 64° |
| 2026-05-04 20:33 | 49.61719 | 24.98701 | 39043 ft | 463 kts | 64° |
| 2026-05-04 20:33 | 49.64304 | 25.07744 | 39045 ft | 463 kts | 64° |
| 2026-05-04 20:34 | 49.66898 | 25.16846 | 39048 ft | 463 kts | 64° |
| 2026-05-04 20:34 | 49.69494 | 25.25988 | 39044 ft | 463 kts | 64° |
| 2026-05-04 20:35 | 49.72085 | 25.35144 | 39051 ft | 464 kts | 65° |
| 2026-05-04 20:35 | 49.74646 | 25.44225 | 39061 ft | 464 kts | 65° |
| 2026-05-04 20:36 | 49.77225 | 25.53403 | 39051 ft | 464 kts | 65° |
| 2026-05-04 20:36 | 49.79775 | 25.62511 | 39048 ft | 464 kts | 64° |
| 2026-05-04 20:37 | 49.82340 | 25.71706 | 39049 ft | 464 kts | 65° |
| 2026-05-04 20:37 | 49.84884 | 25.80861 | 39046 ft | 464 kts | 65° |
| 2026-05-04 20:38 | 49.87427 | 25.90051 | 39039 ft | 464 kts | 65° |
| 2026-05-04 20:38 | 49.89953 | 25.99213 | 39034 ft | 463 kts | 65° |
| 2026-05-04 20:39 | 49.92490 | 26.08445 | 39014 ft | 464 kts | 65° |
| 2026-05-04 20:39 | 49.95012 | 26.17656 | 39016 ft | 464 kts | 65° |
| 2026-05-04 20:40 | 49.97526 | 26.26878 | 39023 ft | 465 kts | 65° |
| 2026-05-04 20:40 | 50.00039 | 26.36133 | 39028 ft | 464 kts | 65° |
| 2026-05-04 20:41 | 50.02533 | 26.45354 | 39033 ft | 464 kts | 65° |
| 2026-05-04 20:41 | 50.05025 | 26.54612 | 39031 ft | 464 kts | 65° |
| 2026-05-04 20:42 | 50.07505 | 26.63861 | 39017 ft | 465 kts | 66° |
| 2026-05-04 20:42 | 50.09984 | 26.73143 | 39019 ft | 465 kts | 66° |
| 2026-05-04 20:43 | 50.12452 | 26.82421 | 39053 ft | 464 kts | 66° |
| 2026-05-04 20:43 | 50.14920 | 26.91737 | 39010 ft | 464 kts | 66° |
| 2026-05-04 20:44 | 50.17373 | 27.01035 | 39034 ft | 464 kts | 66° |
| 2026-05-04 20:44 | 50.19398 | 27.10557 | 39041 ft | 465 kts | 73° |
| 2026-05-04 20:45 | 50.21100 | 27.20263 | 39039 ft | 465 kts | 73° |
| 2026-05-04 20:45 | 50.22809 | 27.30025 | 39032 ft | 466 kts | 73° |
| 2026-05-04 20:46 | 50.24505 | 27.39756 | 39017 ft | 465 kts | 73° |
| 2026-05-04 20:46 | 50.26197 | 27.49504 | 39024 ft | 464 kts | 73° |
| 2026-05-04 20:47 | 50.27845 | 27.59061 | 38462 ft | 449 kts | 73° |
| 2026-05-04 20:47 | 50.28660 | 27.63799 | 37396 ft | 452 kts | 73° |
| 2026-05-04 20:47 | 50.29485 | 27.68602 | 36265 ft | 456 kts | 74° |
| 2026-05-04 20:48 | 50.30301 | 27.73362 | 35351 ft | 459 kts | 74° |
| 2026-05-04 20:48 | 50.31126 | 27.78191 | 34412 ft | 461 kts | 74° |
| 2026-05-04 20:48 | 50.31939 | 27.82992 | 33333 ft | 462 kts | 75° |
| 2026-05-04 20:48 | 50.32735 | 27.87852 | 32132 ft | 465 kts | 75° |
| 2026-05-04 20:49 | 50.33535 | 27.92774 | 31302 ft | 458 kts | 75° |
| 2026-05-04 20:49 | 50.34320 | 27.97612 | 30644 ft | 462 kts | 75° |
| 2026-05-04 20:49 | 50.35113 | 28.02511 | 30007 ft | 468 kts | 75° |
| 2026-05-04 20:49 | 50.35912 | 28.07465 | 29380 ft | 471 kts | 75° |
| 2026-05-04 20:50 | 50.36710 | 28.12423 | 28748 ft | 470 kts | 75° |
| 2026-05-04 20:50 | 50.37494 | 28.17311 | 28153 ft | 464 kts | 75° |
| 2026-05-04 20:50 | 50.38274 | 28.22193 | 27458 ft | 462 kts | 75° |
| 2026-05-04 20:50 | 50.39037 | 28.26985 | 27008 ft | 443 kts | 75° |
| 2026-05-04 20:51 | 50.39786 | 28.31698 | 26300 ft | 446 kts | 75° |
| 2026-05-04 20:51 | 50.40521 | 28.36338 | 25762 ft | 442 kts | 75° |
| 2026-05-04 20:51 | 50.41260 | 28.41015 | 25152 ft | 435 kts | 75° |
| 2026-05-04 20:51 | 50.41987 | 28.45628 | 24573 ft | 435 kts | 75° |
| 2026-05-04 20:52 | 50.42710 | 28.50232 | 24003 ft | 435 kts | 75° |
| 2026-05-04 20:52 | 50.43422 | 28.54772 | 23427 ft | 433 kts | 75° |
| 2026-05-04 20:52 | 50.44144 | 28.59383 | 22853 ft | 436 kts | 75° |
| 2026-05-04 20:52 | 50.44864 | 28.63996 | 22267 ft | 436 kts | 75° |
| 2026-05-04 20:53 | 50.45512 | 28.68675 | 21687 ft | 436 kts | 81° |
| 2026-05-04 20:53 | 50.45546 | 28.73449 | 21050 ft | 435 kts | 92° |
| 2026-05-04 20:53 | 50.45356 | 28.78222 | 20455 ft | 431 kts | 91° |
| 2026-05-04 20:53 | 50.45177 | 28.82883 | 19897 ft | 428 kts | 91° |
| 2026-05-04 20:54 | 50.44999 | 28.87522 | 19330 ft | 426 kts | 91° |
| 2026-05-04 20:54 | 50.44820 | 28.92163 | 18773 ft | 423 kts | 91° |
| 2026-05-04 20:54 | 50.44641 | 28.96748 | 18210 ft | 421 kts | 91° |
| 2026-05-04 20:54 | 50.44461 | 29.01342 | 17654 ft | 422 kts | 91° |
| 2026-05-04 20:55 | 50.44278 | 29.05969 | 17095 ft | 423 kts | 91° |
| 2026-05-04 20:55 | 50.44094 | 29.10559 | 16529 ft | 415 kts | 91° |
| 2026-05-04 20:55 | 50.43912 | 29.15020 | 15982 ft | 405 kts | 91° |
| 2026-05-04 20:55 | 50.43734 | 29.19350 | 15450 ft | 395 kts | 91° |
| 2026-05-04 20:56 | 50.43556 | 29.23582 | 14935 ft | 384 kts | 91° |
| 2026-05-04 20:56 | 50.43380 | 29.27737 | 14431 ft | 373 kts | 91° |
| 2026-05-04 20:56 | 50.43208 | 29.31751 | 13945 ft | 363 kts | 91° |
| 2026-05-04 20:56 | 50.43040 | 29.35659 | 13468 ft | 354 kts | 91° |
| 2026-05-04 20:57 | 50.42875 | 29.39441 | 13014 ft | 345 kts | 91° |
| 2026-05-04 20:57 | 50.42713 | 29.43144 | 12561 ft | 336 kts | 91° |
| 2026-05-04 20:57 | 50.42555 | 29.46748 | 12118 ft | 328 kts | 91° |
| 2026-05-04 20:57 | 50.42398 | 29.50291 | 11691 ft | 320 kts | 91° |
| 2026-05-04 20:58 | 50.42247 | 29.53698 | 11273 ft | 314 kts | 91° |
| 2026-05-04 20:58 | 50.42095 | 29.57093 | 10863 ft | 308 kts | 91° |
| 2026-05-04 20:58 | 50.41945 | 29.60426 | 10457 ft | 303 kts | 91° |
| 2026-05-04 20:58 | 50.41797 | 29.63704 | 10053 ft | 298 kts | 91° |
| 2026-05-04 20:59 | 50.41652 | 29.66904 | 9633 ft | 295 kts | 92° |
| 2026-05-04 20:59 | 50.41506 | 29.70102 | 9257 ft | 289 kts | 92° |
| 2026-05-04 20:59 | 50.41363 | 29.73206 | 8877 ft | 285 kts | 92° |
| 2026-05-04 20:59 | 50.41221 | 29.76283 | 8504 ft | 281 kts | 92° |
| 2026-05-04 21:00 | 50.41079 | 29.79356 | 8127 ft | 279 kts | 92° |
| 2026-05-04 21:00 | 50.40953 | 29.82043 | 7801 ft | 280 kts | 92° |
| 2026-05-04 21:00 | 50.40810 | 29.85099 | 7424 ft | 280 kts | 92° |
| 2026-05-04 21:00 | 50.40669 | 29.88116 | 7059 ft | 279 kts | 92° |
| 2026-05-04 21:01 | 50.40525 | 29.91145 | 6694 ft | 277 kts | 93° |
| 2026-05-04 21:01 | 50.40384 | 29.94122 | 6324 ft | 277 kts | 93° |
| 2026-05-04 21:01 | 50.40239 | 29.97156 | 5957 ft | 276 kts | 93° |
| 2026-05-04 21:01 | 50.40093 | 30.00126 | 5594 ft | 275 kts | 93° |
| 2026-05-04 21:02 | 50.39947 | 30.03100 | 5231 ft | 273 kts | 93° |
| 2026-05-04 21:02 | 50.39800 | 30.06035 | 4878 ft | 267 kts | 94° |
| 2026-05-04 21:02 | 50.39649 | 30.08914 | 4529 ft | 262 kts | 93° |
| 2026-05-04 21:02 | 50.39507 | 30.11717 | 4190 ft | 257 kts | 93° |
| 2026-05-04 21:03 | 50.39365 | 30.14489 | 3858 ft | 252 kts | 93° |
| 2026-05-04 21:03 | 50.39228 | 30.17191 | 3517 ft | 244 kts | 93° |
| 2026-05-04 21:03 | 50.39117 | 30.19721 | 3199 ft | 220 kts | 89° |
| 2026-05-04 21:03 | 50.39163 | 30.22013 | 2910 ft | 202 kts | 85° |
| 2026-05-04 21:04 | 50.39251 | 30.24119 | 2712 ft | 186 kts | 84° |
| 2026-05-04 21:04 | 50.39341 | 30.26137 | 2689 ft | 185 kts | 84° |
| 2026-05-04 21:04 | 50.39432 | 30.28168 | 2487 ft | 183 kts | 84° |
| 2026-05-04 21:04 | 50.39515 | 30.30047 | 2292 ft | 161 kts | 84° |
| 2026-05-04 21:05 | 50.39584 | 30.31667 | 2114 ft | 145 kts | 84° |
| 2026-05-04 21:05 | 50.39653 | 30.33222 | 1882 ft | 142 kts | 84° |
| 2026-05-04 21:05 | 50.39724 | 30.34775 | 1701 ft | 141 kts | 84° |
| 2026-05-04 21:05 | 50.39787 | 30.36306 | 1521 ft | 141 kts | 85° |
| 2026-05-04 21:06 | 50.39849 | 30.37822 | 1342 ft | 139 kts | 84° |
| 2026-05-04 21:06 | 50.39926 | 30.39337 | 1160 ft | 138 kts | 86° |
| 2026-05-04 21:06 | 50.39994 | 30.40836 | 973 ft | 137 kts | 86° |
| 2026-05-04 21:06 | 50.40057 | 30.42312 | 780 ft | 135 kts | 86° |
| 2026-05-04 21:07 | 50.40122 | 30.43782 | 592 ft | 133 kts | 87° |
| 2026-05-04 21:07 | 50.40176 | 30.45067 | 577 ft | 94 kts | 84° |
| 2026-05-04 21:07 | 50.40205 | 30.45794 | 585 ft | 52 kts | 85° |
| 2026-05-04 21:07 | 50.40224 | 30.46142 | 585 ft | 17 kts | 74° |
| 2026-05-04 21:08 | 50.40336 | 30.46193 | 585 ft | 21 kts | 355° |
| 2026-05-04 21:08 | 50.40450 | 30.46131 | 586 ft | 16 kts | 288° |
| 2026-05-04 21:08 | 50.40469 | 30.45843 | 585 ft | 31 kts | 275° |
| 2026-05-04 21:08 | 50.40493 | 30.45589 | 585 ft | 23 kts | 295° |
| 2026-05-04 21:09 | 50.40599 | 30.45379 | 584 ft | 26 kts | 311° |
| 2026-05-04 21:09 | 50.40725 | 30.45155 | 586 ft | 27 kts | 311° |
| 2026-05-04 21:09 | 50.40849 | 30.44933 | 587 ft | 16 kts | 316° |
| 2026-05-04 21:09 | 50.40931 | 30.44791 | 589 ft | 18 kts | 309° |
| 2026-05-04 21:10 | 50.41006 | 30.44635 | 591 ft | 16 kts | 290° |
| 2026-05-04 21:10 | 50.41010 | 30.44522 | 589 ft | 12 kts | 269° |
| 2026-05-04 21:10 | 50.41005 | 30.44338 | 588 ft | 17 kts | 267° |
| 2026-05-04 21:10 | 50.41010 | 30.44206 | 588 ft | 11 kts | 291° |
| 2026-05-04 21:11 | 50.41038 | 30.44113 | 589 ft | 10 kts | 292° |
| 2026-05-04 21:11 | 50.41064 | 30.44019 | 591 ft | 9 kts | 304° |
| 2026-05-04 21:11 | 50.41099 | 30.44021 | 592 ft | 3 kts | 24° |
| 2026-05-04 21:11 | 50.41105 | 30.44025 | 592 ft | 0 kts | 24° |